createdAt,value
2015-10-09T00:00:32.815Z,91
2015-10-09T00:01:32.552Z,91
2015-10-09T00:02:32.540Z,91
2015-10-09T00:03:32.527Z,91
2015-10-09T00:04:32.529Z,91
2015-10-09T00:05:32.266Z,91
2015-10-09T00:06:32.035Z,91
2015-10-09T00:07:33.772Z,91
2015-10-09T00:08:33.760Z,91
2015-10-09T00:10:05.312Z,91
2015-10-09T00:10:33.218Z,91
2015-10-09T00:11:33.080Z,91
2015-10-09T00:12:32.692Z,91
2015-10-09T00:13:32.429Z,91
2015-10-09T00:14:32.165Z,91
2015-10-09T00:15:31.888Z,91
2015-10-09T00:16:31.687Z,91
2015-10-09T00:17:33.409Z,91
2015-10-09T00:18:33.146Z,91
2015-10-09T00:19:32.867Z,91
2015-10-09T00:20:32.620Z,91
2015-10-09T00:21:32.342Z,91
2015-10-09T00:22:32.079Z,91
2015-10-09T00:23:31.815Z,91
2015-10-09T00:24:31.537Z,91
2015-10-09T00:25:31.290Z,91
2015-10-09T00:26:31.074Z,91
2015-10-09T00:27:32.795Z,91
2015-10-09T00:28:32.532Z,91
2015-10-09T00:29:32.254Z,91
2015-10-09T00:30:31.991Z,91
2015-10-09T00:31:31.728Z,91
2015-10-09T00:32:31.481Z,91
2015-10-09T00:33:31.203Z,91
2015-10-09T00:34:30.924Z,91
2015-10-09T00:35:30.661Z,91
2015-10-09T00:36:30.445Z,91
2015-10-09T00:37:32.182Z,91
2015-10-09T00:38:31.920Z,91
2015-10-09T00:39:31.673Z,91
2015-10-09T00:40:31.378Z,91
2015-10-09T00:41:31.115Z,91
2015-10-09T00:42:30.852Z,91
2015-10-09T00:43:30.573Z,91
2015-10-09T00:44:30.326Z,91
2015-10-09T00:45:30.048Z,91
2015-10-09T00:46:29.832Z,91
2015-10-09T00:47:31.569Z,91
2015-10-09T00:48:31.306Z,91
2015-10-09T00:50:02.855Z,91
2015-10-09T00:50:30.777Z,91
2015-10-09T00:51:30.500Z,91
2015-10-09T00:52:30.236Z,91
2015-10-09T00:53:29.973Z,91
2015-10-09T00:54:29.694Z,91
2015-10-09T00:55:29.432Z,91
2015-10-09T00:56:29.231Z,91
2015-10-09T00:58:02.784Z,91
2015-10-09T00:58:30.691Z,91
2015-10-09T00:59:30.411Z,91
2015-10-09T01:00:30.149Z,91
2015-10-09T01:01:29.885Z,91
2015-10-09T01:02:29.623Z,91
2015-10-09T01:03:29.361Z,91
2015-10-09T01:05:00.913Z,91
2015-10-09T01:05:28.819Z,91
2015-10-09T01:06:28.602Z,91
2015-10-09T01:07:30.340Z,91
2015-10-09T01:08:30.077Z,91
2015-10-09T01:09:29.813Z,91
2015-10-09T01:10:29.551Z,91
2015-10-09T01:11:29.272Z,91
2015-10-09T01:12:29.010Z,91
2015-10-09T01:13:28.746Z,91
2015-10-09T01:14:28.593Z,91
2015-10-09T01:15:28.221Z,91
2015-10-09T01:16:28.020Z,91
2015-10-09T01:18:01.557Z,91
2015-10-09T01:18:29.479Z,91
2015-10-09T01:19:29.215Z,91
2015-10-09T01:20:28.938Z,91
2015-10-09T01:21:28.674Z,91
2015-10-09T01:22:28.412Z,91
2015-10-09T01:23:28.134Z,91
2015-10-09T01:24:27.871Z,91
2015-10-09T01:25:27.608Z,91
2015-10-09T01:26:27.392Z,91
2015-10-09T01:27:29.129Z,91
2015-10-09T01:28:28.866Z,91
2015-10-09T01:29:28.587Z,91
2015-10-09T01:30:28.324Z,91
2015-10-09T01:31:28.062Z,91
2015-10-09T01:32:27.799Z,91
2015-10-09T01:33:59.364Z,91
2015-10-09T01:34:27.273Z,91
2015-10-09T01:35:27.009Z,91
2015-10-09T01:36:58.622Z,91
2015-10-09T01:37:28.515Z,91
2015-10-09T01:38:28.267Z,91
2015-10-09T01:39:27.989Z,91
2015-10-09T01:40:27.726Z,91
2015-10-09T01:41:27.464Z,91
2015-10-09T01:42:27.186Z,91
2015-10-09T01:43:26.922Z,91
2015-10-09T01:44:26.659Z,91
2015-10-09T01:45:26.396Z,91
2015-10-09T01:46:26.181Z,91
2015-10-09T01:47:27.918Z,91
2015-10-09T01:48:27.655Z,91
2015-10-09T01:49:27.376Z,91
2015-10-09T01:50:27.113Z,91
2015-10-09T01:51:26.847Z,91
2015-10-09T01:52:26.585Z,91
2015-10-09T01:53:26.306Z,91
2015-10-09T01:54:26.059Z,91
2015-10-09T01:55:57.611Z,91
2015-10-09T01:56:25.564Z,91
2015-10-09T01:57:27.302Z,91
2015-10-09T01:58:27.023Z,91
2015-10-09T01:59:26.760Z,91
2015-10-09T02:01:58.050Z,91
2015-10-09T02:02:25.956Z,91
2015-10-09T02:03:25.708Z,91
2015-10-09T02:04:57.261Z,91
2015-10-09T02:05:25.167Z,91
2015-10-09T02:06:24.701Z,91
2015-10-09T02:07:26.423Z,91
2015-10-09T02:08:26.160Z,91
2015-10-09T02:09:25.632Z,91
2015-10-09T02:10:25.102Z,90
2015-10-09T02:11:24.324Z,90
2015-10-09T02:12:23.546Z,90
2015-10-09T02:13:22.767Z,90
2015-10-09T02:14:21.988Z,90
2015-10-09T02:15:21.210Z,90
2015-10-09T02:16:20.479Z,90
2015-10-09T02:17:22.215Z,90
2015-10-09T02:18:21.452Z,90
2015-10-09T02:19:20.655Z,90
2015-10-09T02:20:19.861Z,90
2015-10-09T02:21:19.067Z,90
2015-10-09T02:22:18.274Z,90
2015-10-09T02:23:17.230Z,90
2015-10-09T02:24:16.174Z,90
2015-10-09T02:25:46.952Z,90
2015-10-09T02:26:14.136Z,90
2015-10-09T02:27:15.883Z,90
2015-10-09T02:28:46.397Z,90
2015-10-09T02:29:13.271Z,90
2015-10-09T02:30:11.990Z,90
2015-10-09T02:31:10.695Z,90
2015-10-09T02:32:09.648Z,90
2015-10-09T02:33:08.367Z,90
2015-10-09T02:34:07.055Z,90
2015-10-09T02:35:05.775Z,90
2015-10-09T02:36:04.528Z,90
2015-10-09T02:37:06.265Z,90
2015-10-09T02:38:04.986Z,90
2015-10-09T02:39:03.691Z,90
2015-10-09T02:40:02.459Z,90
2015-10-09T02:41:01.103Z,90
2015-10-09T02:42:31.638Z,90
2015-10-09T02:42:58.513Z,90
2015-10-09T02:43:57.235Z,90
2015-10-09T02:45:27.755Z,90
2015-10-09T02:45:54.708Z,90
2015-10-09T02:46:56.446Z,90
2015-10-09T02:48:26.963Z,90
2015-10-09T02:48:53.874Z,90
2015-10-09T02:49:52.563Z,90
2015-10-09T02:50:51.269Z,90
2015-10-09T02:51:49.990Z,89
2015-10-09T02:52:48.430Z,89
2015-10-09T02:53:50.746Z,89
2015-10-09T02:54:49.202Z,89
2015-10-09T02:55:47.704Z,89
2015-10-09T02:56:49.441Z,89
2015-10-09T02:57:51.740Z,89
2015-10-09T02:58:50.197Z,89
2015-10-09T02:59:52.481Z,89
2015-10-09T03:00:54.796Z,89
2015-10-09T03:01:57.096Z,89
2015-10-09T03:02:59.379Z,89
2015-10-09T03:04:01.679Z,89
2015-10-09T03:05:03.995Z,89
2015-10-09T03:06:06.341Z,89
2015-10-09T03:07:08.062Z,89
2015-10-09T03:08:10.378Z,89
2015-10-09T03:09:12.662Z,89
2015-10-09T03:10:14.993Z,89
2015-10-09T03:11:17.276Z,89
2015-10-09T03:12:19.561Z,89
2015-10-09T03:13:21.875Z,89
2015-10-09T03:14:24.176Z,89
2015-10-09T03:15:58.290Z,89
2015-10-09T03:16:28.822Z,89
2015-10-09T03:17:30.559Z,89
2015-10-09T03:18:32.859Z,89
2015-10-09T03:19:34.893Z,89
2015-10-09T03:20:36.973Z,88
2015-10-09T03:21:38.757Z,88
2015-10-09T03:23:12.356Z,88
2015-10-09T03:23:42.325Z,88
2015-10-09T03:24:44.109Z,88
2015-10-09T03:25:45.909Z,88
2015-10-09T03:26:47.755Z,88
2015-10-09T03:27:49.478Z,88
2015-10-09T03:28:51.266Z,88
2015-10-09T03:29:53.065Z,88
2015-10-09T03:30:54.850Z,88
2015-10-09T03:31:56.383Z,88
2015-10-09T03:32:57.917Z,88
2015-10-09T03:33:59.435Z,88
2015-10-09T03:35:01.236Z,88
2015-10-09T03:36:03.019Z,88
2015-10-09T03:37:04.600Z,88
2015-10-09T03:38:06.322Z,88
2015-10-09T03:39:07.855Z,88
2015-10-09T03:40:09.389Z,88
2015-10-09T03:41:10.923Z,88
2015-10-09T03:42:12.458Z,88
2015-10-09T03:43:14.257Z,88
2015-10-09T03:44:16.041Z,88
2015-10-09T03:45:17.825Z,88
2015-10-09T03:46:19.609Z,88
2015-10-09T03:47:21.455Z,88
2015-10-09T03:48:23.193Z,88
2015-10-09T03:49:24.977Z,88
2015-10-09T03:50:26.776Z,88
2015-10-09T03:51:28.544Z,88
2015-10-09T03:52:30.344Z,88
2015-10-09T03:53:32.129Z,88
2015-10-09T03:54:33.912Z,88
2015-10-09T03:55:35.712Z,88
2015-10-09T03:56:37.512Z,88
2015-10-09T03:57:39.280Z,88
2015-10-09T03:58:41.063Z,87
2015-10-09T03:59:42.349Z,87
2015-10-09T04:00:43.617Z,87
2015-10-09T04:01:44.886Z,87
2015-10-09T04:02:45.654Z,87
2015-10-09T04:04:18.238Z,87
2015-10-09T04:04:47.175Z,87
2015-10-09T04:05:47.943Z,86
2015-10-09T04:06:48.446Z,86
2015-10-09T04:07:49.011Z,86
2015-10-09T04:08:50.748Z,87
2015-10-09T04:09:51.501Z,87
2015-10-09T04:10:52.269Z,87
2015-10-09T04:11:53.038Z,86
2015-10-09T04:12:53.291Z,86
2015-10-09T04:13:53.528Z,86
2015-10-09T04:14:53.796Z,86
2015-10-09T04:16:25.864Z,86
2015-10-09T04:16:54.286Z,86
2015-10-09T04:17:54.601Z,86
2015-10-09T04:19:28.154Z,86
2015-10-09T04:19:56.576Z,86
2015-10-09T04:20:56.829Z,85
2015-10-09T04:21:56.566Z,85
2015-10-09T04:22:56.302Z,86
2015-10-09T04:23:56.305Z,86
2015-10-09T04:24:56.292Z,85
2015-10-09T04:25:56.029Z,85
2015-10-09T04:26:55.766Z,85
2015-10-09T04:27:55.551Z,85
2015-10-09T04:28:57.288Z,85
2015-10-09T04:29:57.041Z,85
2015-10-09T04:30:56.762Z,85
2015-10-09T04:31:56.484Z,85
2015-10-09T04:32:56.237Z,85
2015-10-09T04:33:55.973Z,85
2015-10-09T04:34:55.460Z,85
2015-10-09T04:35:55.198Z,85
2015-10-09T04:36:55.201Z,86
2015-10-09T04:38:27.312Z,85
2015-10-09T04:38:57.221Z,85
2015-10-09T04:39:56.958Z,85
2015-10-09T04:40:56.696Z,85
2015-10-09T04:41:56.432Z,85
2015-10-09T04:42:56.170Z,85
2015-10-09T04:43:56.172Z,85
2015-10-09T04:44:55.675Z,85
2015-10-09T04:45:54.881Z,85
2015-10-09T04:46:54.353Z,85
2015-10-09T04:47:54.167Z,85
2015-10-09T04:48:55.905Z,85
2015-10-09T04:49:55.626Z,85
2015-10-09T04:50:55.379Z,85
2015-10-09T04:51:55.116Z,85
2015-10-09T04:52:54.853Z,85
2015-10-09T04:53:54.839Z,85
2015-10-09T04:54:54.843Z,85
2015-10-09T04:55:54.830Z,85
2015-10-09T04:57:26.645Z,85
2015-10-09T04:57:54.883Z,86
2015-10-09T04:59:28.432Z,86
2015-10-09T05:00:56.594Z,85
2015-10-09T05:01:56.331Z,85
2015-10-09T05:02:56.069Z,85
2015-10-09T05:03:55.805Z,85
2015-10-09T05:04:55.289Z,85
2015-10-09T05:05:54.777Z,85
2015-10-09T05:06:54.514Z,85
2015-10-09T05:07:54.313Z,85
2015-10-09T05:09:27.865Z,85
2015-10-09T05:09:56.037Z,85
2015-10-09T05:10:55.790Z,85
2015-10-09T05:11:55.777Z,85
2015-10-09T05:12:55.514Z,85
2015-10-09T05:13:55.517Z,85
2015-10-09T05:14:55.505Z,85
2015-10-09T05:15:55.507Z,86
2015-10-09T05:16:55.744Z,85
2015-10-09T05:17:55.794Z,85
2015-10-09T05:19:29.363Z,85
2015-10-09T05:19:57.534Z,85
2015-10-09T05:20:57.458Z,85
2015-10-09T05:21:57.258Z,85
2015-10-09T05:22:57.010Z,85
2015-10-09T05:23:56.732Z,85
2015-10-09T05:24:56.485Z,85
2015-10-09T05:26:28.038Z,85
2015-10-09T05:26:56.225Z,86
2015-10-09T05:27:56.710Z,86
2015-10-09T05:28:58.291Z,86
2015-10-09T05:29:58.650Z,86
2015-10-09T05:30:59.028Z,86
2015-10-09T05:31:59.530Z,86
2015-10-09T05:33:00.033Z,86
2015-10-09T05:34:00.552Z,87
2015-10-09T05:35:01.304Z,87
2015-10-09T05:36:33.888Z,87
2015-10-09T05:37:02.841Z,87
2015-10-09T05:38:35.488Z,87
2015-10-09T05:39:05.378Z,87
2015-10-09T05:40:06.162Z,87
2015-10-09T05:41:06.914Z,87
2015-10-09T05:42:07.682Z,87
2015-10-09T05:43:08.467Z,87
2015-10-09T05:44:09.204Z,87
2015-10-09T05:45:09.973Z,87
2015-10-09T05:46:10.740Z,87
2015-10-09T05:47:11.509Z,87
2015-10-09T05:48:12.324Z,87
2015-10-09T05:49:14.062Z,87
2015-10-09T05:50:14.830Z,87
2015-10-09T05:51:15.600Z,87
2015-10-09T05:52:16.368Z,86
2015-10-09T05:53:16.605Z,86
2015-10-09T05:54:16.857Z,86
2015-10-09T05:55:48.938Z,86
2015-10-09T05:56:17.393Z,86
2015-10-09T05:57:17.610Z,86
2015-10-09T05:58:17.941Z,86
2015-10-09T05:59:51.490Z,86
2015-10-09T06:00:19.914Z,86
2015-10-09T06:01:20.168Z,86
2015-10-09T06:02:20.421Z,86
2015-10-09T06:03:20.673Z,86
2015-10-09T06:04:52.753Z,85
2015-10-09T06:05:20.928Z,85
2015-10-09T06:06:20.650Z,85
2015-10-09T06:07:20.403Z,85
2015-10-09T06:08:20.218Z,85
2015-10-09T06:09:21.924Z,85
2015-10-09T21:49:29.054Z,61
2015-10-09T21:50:59.309Z,61
2015-10-09T21:52:01.047Z,61
2015-10-09T21:53:01.815Z,62
2015-10-09T21:54:03.083Z,62
2015-10-09T21:55:04.367Z,62
2015-10-09T21:56:37.448Z,61
2015-10-09T21:57:06.653Z,61
2015-10-09T21:58:07.406Z,60
2015-10-09T21:59:07.909Z,61
2015-10-09T22:00:08.653Z,60
2015-10-09T22:01:09.233Z,60
2015-10-09T22:02:10.891Z,61
2015-10-09T22:03:11.706Z,61
2015-10-09T22:04:12.725Z,60
2015-10-09T22:05:13.227Z,60
2015-10-09T22:06:13.746Z,61
2015-10-09T22:07:14.499Z,61
2015-10-09T22:08:15.266Z,60
2015-10-09T22:09:47.598Z,61
2015-10-09T22:10:16.538Z,61
2015-10-09T22:11:17.338Z,61
2015-10-09T22:12:19.091Z,61
2015-10-09T22:13:20.108Z,60
2015-10-09T22:14:20.611Z,61
2015-10-09T22:15:21.614Z,60
2015-10-09T22:16:22.149Z,61
2015-10-09T22:17:23.152Z,61
2015-10-09T22:18:24.169Z,61
2015-10-09T22:19:24.922Z,60
2015-10-09T22:20:25.441Z,61
2015-10-09T22:21:26.255Z,60
2015-10-09T22:22:27.977Z,61
2015-10-09T22:23:28.745Z,61
2015-10-09T22:25:01.592Z,61
2015-10-09T22:25:30.782Z,61
2015-10-09T22:26:31.550Z,61
2015-10-09T22:27:32.568Z,61
2015-10-09T22:28:33.587Z,62
2015-10-09T22:29:34.856Z,62
2015-10-09T22:30:36.140Z,61
2015-10-09T22:31:37.220Z,61
2015-10-09T22:33:40.476Z,62
2015-10-09T22:34:42.009Z,62
2015-10-09T22:35:43.528Z,62
2015-10-09T22:36:44.812Z,62
2015-10-09T22:37:46.345Z,63
2015-10-09T22:38:48.395Z,62
2015-10-09T22:39:49.928Z,62
2015-10-09T22:40:51.713Z,62
2015-10-09T22:41:53.559Z,62
2015-10-09T22:43:27.112Z,62
2015-10-09T22:43:57.081Z,63
2015-10-09T22:46:00.914Z,62
2015-10-09T22:47:02.697Z,62
2015-10-09T22:48:04.497Z,63
2015-10-09T22:49:06.797Z,63
2015-10-09T22:50:40.663Z,63
2015-10-09T22:51:11.131Z,62
2015-10-09T22:52:12.727Z,62
2015-10-09T22:53:14.463Z,62
2015-10-09T22:54:47.813Z,62
2015-10-09T22:55:49.347Z,62
2015-10-09T22:56:19.319Z,62
2015-10-09T22:57:21.103Z,63
2015-10-09T22:58:54.965Z,63
2015-10-09T22:59:25.452Z,63
2015-10-09T23:00:27.768Z,63
2015-10-09T23:02:01.879Z,63
2015-10-09T23:02:32.413Z,64
2015-10-09T23:03:34.150Z,64
2015-10-09T23:04:32.871Z,64
2015-10-09T23:05:31.328Z,63
2015-10-09T23:07:05.440Z,63
2015-10-09T23:07:35.676Z,63
2015-10-09T23:08:37.711Z,63
2015-10-09T23:09:40.010Z,63
2015-10-09T23:10:42.060Z,63
2015-10-09T23:11:44.109Z,63
2015-10-09T23:12:46.206Z,63
2015-10-09T23:13:47.943Z,63
2015-10-09T23:14:50.242Z,64
2015-10-09T23:16:20.528Z,64
2015-10-09T23:16:47.419Z,64
2015-10-09T23:17:46.141Z,64
2015-10-09T23:19:16.409Z,64
2015-10-09T23:19:43.052Z,64
2015-10-09T23:21:40.542Z,64
2015-10-09T23:22:39.249Z,64
2015-10-09T23:23:40.985Z,64
2015-10-09T23:24:39.441Z,64
2015-10-09T23:25:38.147Z,63
2015-10-09T23:27:08.431Z,63
2015-10-09T23:27:35.074Z,63
2015-10-09T23:28:33.530Z,64
2015-10-09T23:29:32.251Z,64
2015-10-09T23:31:02.786Z,64
2015-10-09T23:31:29.663Z,64
2015-10-09T23:32:28.697Z,64
2015-10-09T23:33:30.418Z,65
2015-10-09T23:34:29.656Z,64
2015-10-09T23:35:28.643Z,64
2015-10-09T23:36:27.349Z,64
2015-10-09T23:37:26.054Z,64
2015-10-09T23:38:25.023Z,65
2015-10-09T23:39:24.260Z,65
2015-10-09T23:40:23.482Z,65
2015-10-09T23:41:22.969Z,66
2015-10-09T23:43:24.490Z,65
2015-10-09T23:44:23.727Z,65
2015-10-09T23:45:23.214Z,65
2015-10-09T23:46:22.686Z,65
2015-10-09T23:47:21.922Z,64
2015-10-09T23:48:20.894Z,65
2015-10-09T23:49:20.131Z,66
2015-10-09T23:50:19.853Z,66
2015-10-09T23:51:19.605Z,66
2015-10-09T23:52:19.420Z,66
2015-10-09T23:53:21.142Z,66
2015-10-09T23:54:20.894Z,66
2015-10-09T23:55:20.881Z,65
2015-10-09T23:56:20.634Z,66
2015-10-09T23:57:20.622Z,65
2015-10-09T23:58:20.358Z,65
2015-10-09T23:59:20.111Z,65
